Time;durP1;ratioP1;P1;durP2;ratioP2;P2;SDS_P1;SDS_P2;PMS_P1;PMS_P2;Temp;Humidity;BMP_temperature;BMP_pressure;BME280_temperature;BME280_humidity;BME280_pressure;Samples;Min_cycle;Max_cycle;Signal;HPM_P1;HPM_P2
2021/07/05 05:54:24;;;;;;;3.33;1.70;;;;;;;;;;10614008;27;20376;-84
2021/07/05 05:59:26;;;;;;;2.63;1.50;;;;;;;;;;10579259;28;20070;-85
2021/07/05 06:04:26;;;;;;;1.65;0.98;;;;;;;;;;10579299;28;20107;-84
2021/07/05 06:09:28;;;;;;;2.28;1.00;;;;;;;;;;10578106;28;20054;-85
2021/07/05 06:14:29;;;;;;;2.28;1.17;;;;;;;;;;10579146;28;20028;-83
2021/07/05 06:19:30;;;;;;;2.30;1.02;;;;;;;;;;10579501;28;20469;-82
2021/07/05 06:24:47;;;;;;;1.65;1.10;;;;;;;;;;10612467;22;20049;-84
2021/07/05 06:30:05;;;;;;;1.67;1.00;;;;;;;;;;10635200;28;20130;-85
2021/07/05 06:41:47;;;;;;;1.70;1.13;;;;;;;;;;10633643;28;20031;-85
2021/07/05 06:47:17;;;;;;;1.73;1.17;;;;;;;;;;10626911;28;20019;-85
2021/07/05 06:52:33;;;;;;;1.75;1.00;;;;;;;;;;10614364;28;20113;-86
2021/07/05 06:57:34;;;;;;;2.70;1.90;;;;;;;;;;10609405;28;20084;-85
2021/07/05 07:02:36;;;;;;;2.72;2.22;;;;;;;;;;10599089;28;20035;-84
2021/07/05 07:07:38;;;;;;;4.30;2.88;;;;;;;;;;10581722;28;20019;-82
2021/07/05 07:12:40;;;;;;;4.60;2.78;;;;;;;;;;10583542;28;20042;-85
2021/07/05 07:17:45;;;;;;;4.05;3.17;;;;;;;;;;10581319;28;20099;-85
2021/07/05 07:22:46;;;;;;;3.70;3.00;;;;;;;;;;10577494;28;20027;-85
2021/07/05 07:27:47;;;;;;;7.60;4.72;;;;;;;;;;10578938;28;20032;-84
2021/07/05 07:32:48;;;;;;;4.50;3.67;;;;;;;;;;10582936;28;20024;-84
2021/07/05 07:37:50;;;;;;;7.35;3.88;;;;;;;;;;10580526;28;20027;-86
2021/07/05 07:42:52;;;;;;;6.53;3.35;;;;;;;;;;10585486;28;20057;-85
2021/07/05 07:47:53;;;;;;;5.15;3.10;;;;;;;;;;10588173;28;20020;-85
2021/07/05 07:52:56;;;;;;;5.07;3.15;;;;;;;;;;10578648;28;20046;-85
2021/07/05 07:57:57;;;;;;;4.80;2.88;;;;;;;;;;10580026;28;20019;-85
2021/07/05 08:02:58;;;;;;;6.65;2.92;;;;;;;;;;10580787;28;20043;-84
2021/07/05 08:07:59;;;;;;;3.90;2.78;;;;;;;;;;10582512;28;20023;-84
2021/07/05 08:13:02;;;;;;;4.63;2.50;;;;;;;;;;10585837;28;20473;-84
2021/07/05 08:18:03;;;;;;;6.18;2.70;;;;;;;;;;10587511;28;20062;-86
2021/07/05 08:23:04;;;;;;;7.20;3.95;;;;;;;;;;10587479;28;20027;-85
2021/07/05 08:28:05;;;;;;;5.40;2.85;;;;;;;;;;10591487;28;20087;-83
2021/07/05 08:33:09;;;;;;;6.45;2.63;;;;;;;;;;10600245;28;20028;-87
2021/07/05 08:38:10;;;;;;;5.75;3.28;;;;;;;;;;10594915;28;20019;-85
2021/07/05 08:43:11;;;;;;;5.40;3.17;;;;;;;;;;10596358;28;20058;-84
2021/07/05 08:48:13;;;;;;;5.65;3.00;;;;;;;;;;10594958;28;20031;-83
2021/07/05 08:53:14;;;;;;;5.93;3.30;;;;;;;;;;10582671;28;20024;-82
2021/07/05 08:58:15;;;;;;;3.55;2.67;;;;;;;;;;10579661;28;20043;-84
2021/07/05 09:03:21;;;;;;;7.53;2.90;;;;;;;;;;10602108;27;20036;-81
2021/07/05 09:08:22;;;;;;;7.10;3.00;;;;;;;;;;10576326;28;20032;-81
2021/07/05 09:13:25;;;;;;;5.63;3.08;;;;;;;;;;10576321;28;20129;-82
2021/07/05 09:18:26;;;;;;;6.60;3.00;;;;;;;;;;10575999;28;20066;-84
2021/07/05 09:23:27;;;;;;;5.88;2.67;;;;;;;;;;10579571;28;20036;-83
2021/07/05 09:28:28;;;;;;;4.43;4.03;;;;;;;;;;10579262;28;20032;-82
2021/07/05 09:33:30;;;;;;;5.63;3.00;;;;;;;;;;10570924;28;20341;-82
2021/07/05 09:38:34;;;;;;;6.95;3.25;;;;;;;;;;10570617;28;20069;-82
2021/07/05 09:43:36;;;;;;;8.32;3.40;;;;;;;;;;10569769;28;20057;-82
2021/07/05 09:48:46;;;;;;;4.97;3.35;;;;;;;;;;10578699;28;20024;-83
2021/07/05 09:53:48;;;;;;;4.43;2.70;;;;;;;;;;10597559;28;20063;-83
2021/07/05 09:58:51;;;;;;;4.90;2.90;;;;;;;;;;10577545;28;20105;-83
2021/07/05 10:04:02;;;;;;;6.93;3.40;;;;;;;;;;10578308;28;20019;-84
2021/07/05 10:09:07;;;;;;;4.28;2.90;;;;;;;;;;10581254;28;20016;-83
2021/07/05 10:14:09;;;;;;;4.75;3.00;;;;;;;;;;10575659;28;20027;-83
2021/07/05 10:19:10;;;;;;;6.72;2.70;;;;;;;;;;10578679;28;20030;-83
2021/07/05 10:24:11;;;;;;;6.25;2.92;;;;;;;;;;10575879;28;20032;-83
2021/07/05 10:29:12;;;;;;;4.90;2.80;;;;;;;;;;10575763;28;20092;-84
2021/07/05 10:34:14;;;;;;;4.10;2.88;;;;;;;;;;10573199;28;20035;-84
2021/07/05 10:39:16;;;;;;;3.60;2.40;;;;;;;;;;10587328;28;20059;-85
2021/07/05 10:44:20;;;;;;;4.20;2.50;;;;;;;;;;10605701;28;20032;-84
2021/07/05 10:49:30;;;;;;;6.20;2.60;;;;;;;;;;10581636;28;20026;-84
2021/07/05 10:54:40;;;;;;;11.02;2.92;;;;;;;;;;10589244;28;20125;-84
2021/07/05 10:59:52;;;;;;;4.57;2.60;;;;;;;;;;10588814;28;20027;-84
2021/07/05 11:05:00;;;;;;;5.53;2.65;;;;;;;;;;10604058;28;20081;-85
2021/07/05 11:10:01;;;;;;;3.88;2.40;;;;;;;;;;10587683;28;20489;-84
2021/07/05 11:15:02;;;;;;;5.82;2.10;;;;;;;;;;10582748;28;20027;-83
2021/07/05 11:20:13;;;;;;;5.18;2.20;;;;;;;;;;10600929;28;20465;-82
2021/07/05 11:25:17;;;;;;;4.35;1.98;;;;;;;;;;10599054;28;20069;-82
2021/07/05 11:30:26;;;;;;;5.03;2.25;;;;;;;;;;10579861;28;20454;-80
2021/07/05 11:35:30;;;;;;;4.07;2.38;;;;;;;;;;10577780;28;20544;-82
2021/07/05 11:40:37;;;;;;;5.28;2.25;;;;;;;;;;10577052;28;20099;-83
2021/07/05 11:45:39;;;;;;;8.73;4.30;;;;;;;;;;10578598;28;20046;-80
2021/07/05 11:50:41;;;;;;;4.75;2.17;;;;;;;;;;10601327;28;20496;-83
2021/07/05 11:55:42;;;;;;;4.93;2.00;;;;;;;;;;10582152;28;20030;-83
2021/07/05 12:00:43;;;;;;;5.85;2.58;;;;;;;;;;10580846;28;20467;-85
2021/07/05 12:05:45;;;;;;;4.75;2.20;;;;;;;;;;10579845;28;20020;-82
2021/07/05 12:10:47;;;;;;;4.60;2.00;;;;;;;;;;10579957;28;20027;-84
2021/07/05 12:15:59;;;;;;;5.28;2.70;;;;;;;;;;10582386;28;20026;-84
2021/07/05 12:21:02;;;;;;;3.88;2.10;;;;;;;;;;10579064;28;20027;-84
2021/07/05 12:26:16;;;;;;;3.75;1.90;;;;;;;;;;10580426;28;20203;-84
2021/07/05 12:31:23;;;;;;;5.22;2.30;;;;;;;;;;10578949;28;20047;-84
2021/07/05 12:47:58;;;;;;;5.05;2.10;;;;;;;;;;10465928;28;20033;-84
2021/07/05 12:53:05;;;;;;;3.97;2.15;;;;;;;;;;10559359;28;20040;-83
2021/07/05 12:58:06;;;;;;;3.33;1.90;;;;;;;;;;10575271;28;20059;-84
2021/07/05 13:03:12;;;;;;;3.28;2.00;;;;;;;;;;10573358;28;20019;-84
2021/07/05 13:08:16;;;;;;;3.67;1.90;;;;;;;;;;10576738;28;20047;-83
2021/07/05 13:13:17;;;;;;;3.78;2.28;;;;;;;;;;10577560;28;20028;-83
2021/07/05 13:18:26;;;;;;;3.63;2.33;;;;;;;;;;10582379;27;20016;-85
2021/07/05 13:23:40;;;;;;;4.07;3.25;;;;;;;;;;10574806;28;20061;-85
2021/07/05 13:28:46;;;;;;;5.32;3.08;;;;;;;;;;10574859;28;20036;-84
2021/07/05 13:33:48;;;;;;;4.75;2.58;;;;;;;;;;10579542;28;20015;-84
2021/07/05 13:38:49;;;;;;;4.40;2.53;;;;;;;;;;10575109;28;20024;-85
2021/07/05 13:43:57;;;;;;;6.57;4.72;;;;;;;;;;10578278;28;20027;-84
2021/07/05 13:49:11;;;;;;;5.20;3.00;;;;;;;;;;10580337;28;20016;-82
2021/07/05 13:54:26;;;;;;;6.93;3.00;;;;;;;;;;10574832;28;20016;-83
2021/07/05 13:59:27;;;;;;;4.50;3.28;;;;;;;;;;10581186;28;20115;-82
2021/07/05 14:04:28;;;;;;;6.43;3.20;;;;;;;;;;10583495;28;20427;-83
2021/07/05 14:09:29;;;;;;;7.75;3.45;;;;;;;;;;10581762;28;20028;-82
2021/07/05 14:14:31;;;;;;;5.07;3.50;;;;;;;;;;10587277;28;20027;-84
2021/07/05 14:19:32;;;;;;;5.53;3.20;;;;;;;;;;10585257;28;20031;-81
2021/07/05 14:24:33;;;;;;;6.05;3.22;;;;;;;;;;10583275;28;20170;-82
2021/07/05 14:29:35;;;;;;;5.25;3.58;;;;;;;;;;10597977;28;20105;-83
2021/07/05 14:34:36;;;;;;;5.85;4.30;;;;;;;;;;10579676;28;20119;-84
2021/07/05 14:39:40;;;;;;;4.90;3.53;;;;;;;;;;10580748;28;20050;-83
2021/07/05 14:44:53;;;;;;;5.07;3.47;;;;;;;;;;10564524;28;20059;-82
2021/07/05 14:49:53;;;;;;;7.65;3.88;;;;;;;;;;10580724;28;20457;-82
2021/07/05 14:54:54;;;;;;;5.50;3.42;;;;;;;;;;10582768;28;20045;-84
2021/07/05 14:59:55;;;;;;;3.55;2.00;;;;;;;;;;10607390;28;20028;-84
2021/07/05 15:04:57;;;;;;;4.40;2.50;;;;;;;;;;10589950;28;20015;-85
2021/07/05 15:09:57;;;;;;;4.72;2.50;;;;;;;;;;10594136;28;20020;-84
2021/07/05 15:14:58;;;;;;;4.05;2.15;;;;;;;;;;10604228;28;20019;-84
2021/07/05 15:19:59;;;;;;;4.13;2.15;;;;;;;;;;10584182;28;20367;-84
2021/07/05 15:25:00;;;;;;;3.35;1.80;;;;;;;;;;10583861;28;20039;-85
2021/07/05 15:30:02;;;;;;;3.72;1.90;;;;;;;;;;10583229;28;20050;-83
2021/07/05 15:35:05;;;;;;;3.53;2.20;;;;;;;;;;10579202;28;20027;-84
2021/07/05 15:40:07;;;;;;;3.08;1.98;;;;;;;;;;10583754;28;20024;-84
2021/07/05 15:45:08;;;;;;;2.97;1.85;;;;;;;;;;10584660;28;20536;-84
2021/07/05 15:50:10;;;;;;;2.75;1.50;;;;;;;;;;10581573;28;20046;-84
2021/07/05 15:55:11;;;;;;;3.92;2.25;;;;;;;;;;10580761;28;20066;-82
2021/07/05 16:00:13;;;;;;;2.95;1.40;;;;;;;;;;10578937;28;20055;-83
2021/07/05 16:05:15;;;;;;;2.30;1.40;;;;;;;;;;10578960;28;20020;-84
2021/07/05 16:10:16;;;;;;;2.25;1.40;;;;;;;;;;10576860;28;20361;-82
2021/07/05 16:15:18;;;;;;;2.30;1.70;;;;;;;;;;10580509;28;20024;-84
